Time;durP1;ratioP1;P1;durP2;ratioP2;P2;SDS_P1;SDS_P2;PMS_P1;PMS_P2;Temp;Humidity;BMP_temperature;BMP_pressure;BME280_temperature;BME280_humidity;BME280_pressure;Samples;Min_cycle;Max_cycle;Signal;HPM_P1;HPM_P2
2022/09/29 00:00:28;;;;;;;;;;;9.50;99.90;;;;;;4986152;28;19980;-77
2022/09/29 00:02:56;;;;;;;;;;;9.40;99.90;;;;;;4982000;28;19965;-78
2022/09/29 00:05:23;;;;;;;;;;;9.50;99.90;;;;;;4983721;28;20408;-78
2022/09/29 00:07:49;;;;;;;;;;;9.40;99.90;;;;;;4985592;28;20024;-77
2022/09/29 00:10:16;;;;;;;;;;;9.40;99.90;;;;;;4986817;28;19976;-78
2022/09/29 00:12:43;;;;;;;;;;;9.40;99.90;;;;;;4985451;28;19933;-77
2022/09/29 00:15:10;;;;;;;;;;;9.40;99.90;;;;;;4990350;28;19972;-77
2022/09/29 00:17:37;;;;;;;;;;;9.40;99.90;;;;;;4980893;28;19929;-77
2022/09/29 00:20:06;;;;;;;;;;;9.40;99.90;;;;;;4979671;28;19929;-77
2022/09/29 00:22:33;;;;;;;;;;;9.40;99.90;;;;;;4988171;28;19933;-78
2022/09/29 00:25:00;;;;;;;;;;;9.40;99.90;;;;;;4984321;28;20348;-77
2022/09/29 00:27:26;;;;;;;;;;;9.40;99.90;;;;;;4991192;28;19949;-77
2022/09/29 00:29:53;;;;;;;;;;;9.40;99.90;;;;;;5001290;28;19925;-77
2022/09/29 00:32:20;;;;;;;;;;;9.40;99.90;;;;;;4985293;28;19925;-78
2022/09/29 00:34:47;;;;;;;;;;;9.40;99.90;;;;;;4982116;28;20037;-77
2022/09/29 00:37:15;;;;;;;;;;;9.40;99.90;;;;;;4984352;28;19957;-77
2022/09/29 00:39:42;;;;;;;;;;;9.40;99.90;;;;;;4982800;28;20008;-78
2022/09/29 00:42:09;;;;;;;;;;;9.30;99.90;;;;;;4986041;28;19961;-78
2022/09/29 00:44:59;;;;;;;;;;;9.30;99.90;;;;;;4978588;28;19926;-78
2022/09/29 00:47:27;;;;;;;;;;;9.30;99.90;;;;;;4986581;28;19933;-77
2022/09/29 00:49:55;;;;;;;;;;;9.30;99.90;;;;;;4990333;28;19941;-77
2022/09/29 00:52:25;;;;;;;;;;;9.40;99.90;;;;;;4982819;28;19958;-77
2022/09/29 00:54:55;;;;;;;;;;;9.30;99.90;;;;;;4997649;28;19972;-77
2022/09/29 00:57:25;;;;;;;;;;;9.30;99.90;;;;;;4984428;28;19934;-77
2022/09/29 00:59:55;;;;;;;;;;;9.30;99.90;;;;;;4984307;28;20027;-78
2022/09/29 01:02:22;;;;;;;;;;;9.30;99.90;;;;;;4980766;28;20021;-77
2022/09/29 01:04:50;;;;;;;;;;;9.30;99.90;;;;;;4982660;28;19933;-78
2022/09/29 01:07:18;;;;;;;;;;;9.30;99.90;;;;;;4987171;28;19988;-77
2022/09/29 01:09:46;;;;;;;;;;;9.30;99.90;;;;;;4980441;28;20374;-77
2022/09/29 01:12:13;;;;;;;;;;;9.30;99.90;;;;;;4984167;28;19926;-78
2022/09/29 01:14:40;;;;;;;;;;;9.30;99.90;;;;;;4974850;28;19988;-78
2022/09/29 01:17:07;;;;;;;;;;;9.30;99.90;;;;;;4974550;28;19926;-78
2022/09/29 01:19:37;;;;;;;;;;;9.30;99.90;;;;;;4980339;28;19930;-77
2022/09/29 01:22:06;;;;;;;;;;;9.30;99.90;;;;;;4984716;28;19965;-77
2022/09/29 01:24:51;;;;;;;;;;;9.40;99.90;;;;;;4982984;28;19925;-77
2022/09/29 01:27:36;;;;;;;;;;;9.30;99.90;;;;;;4983122;28;19957;-77
2022/09/29 01:30:10;;;;;;;;;;;9.30;99.90;;;;;;4971839;28;20428;-77
2022/09/29 01:32:43;;;;;;;;;;;9.30;99.90;;;;;;4985896;28;20018;-77
2022/09/29 01:35:14;;;;;;;;;;;9.30;99.90;;;;;;4979721;28;20029;-76
2022/09/29 01:37:49;;;;;;;;;;;9.30;99.90;;;;;;4987641;28;20412;-77
2022/09/29 01:40:17;;;;;;;;;;;9.30;99.90;;;;;;4986584;28;19937;-78
2022/09/29 01:42:48;;;;;;;;;;;9.30;99.90;;;;;;4984755;28;19926;-78
2022/09/29 01:45:18;;;;;;;;;;;9.30;99.90;;;;;;4985977;28;20444;-77
2022/09/29 01:47:49;;;;;;;;;;;9.30;99.90;;;;;;4979084;28;19929;-77
2022/09/29 01:50:18;;;;;;;;;;;9.30;99.90;;;;;;4983699;28;20359;-76
2022/09/29 01:52:46;;;;;;;;;;;9.30;99.90;;;;;;4984011;28;19956;-77
2022/09/29 01:55:16;;;;;;;;;;;9.30;99.90;;;;;;4989172;28;19932;-77
2022/09/29 01:57:46;;;;;;;;;;;9.30;99.90;;;;;;4984082;28;20016;-77
2022/09/29 02:00:14;;;;;;;;;;;9.30;99.90;;;;;;4983189;28;19952;-78
2022/09/29 02:02:44;;;;;;;;;;;9.30;99.90;;;;;;4989763;28;20376;-78
2022/09/29 02:05:16;;;;;;;;;;;9.30;99.90;;;;;;4985210;28;20008;-78
2022/09/29 02:07:44;;;;;;;;;;;9.30;99.90;;;;;;4991404;28;20038;-77
2022/09/29 02:10:17;;;;;;;;;;;9.30;99.90;;;;;;4989130;28;19933;-78
2022/09/29 02:12:44;;;;;;;;;;;9.30;99.90;;;;;;4986865;28;19976;-77
2022/09/29 02:15:13;;;;;;;;;;;9.30;99.90;;;;;;4984332;28;20729;-78
2022/09/29 02:17:42;;;;;;;;;;;9.30;99.90;;;;;;4984437;28;19944;-78
2022/09/29 02:20:10;;;;;;;;;;;9.30;99.90;;;;;;4989071;28;20676;-77
2022/09/29 02:22:39;;;;;;;;;;;9.30;99.90;;;;;;4989641;28;20013;-77
2022/09/29 02:25:07;;;;;;;;;;;9.30;99.90;;;;;;4980658;28;19926;-77
2022/09/29 02:27:34;;;;;;;;;;;9.30;99.90;;;;;;4981298;28;19980;-77
2022/09/29 02:30:01;;;;;;;;;;;9.30;99.90;;;;;;4987110;28;19930;-77
2022/09/29 02:32:29;;;;;;;;;;;9.30;99.90;;;;;;4983950;28;20016;-77
2022/09/29 02:34:56;;;;;;;;;;;9.30;99.90;;;;;;4982759;28;20288;-77
2022/09/29 02:37:28;;;;;;;;;;;9.30;99.90;;;;;;4987524;28;20455;-78
2022/09/29 02:40:05;;;;;;;;;;;9.30;99.90;;;;;;4987108;28;19988;-78
2022/09/29 02:42:38;;;;;;;;;;;9.30;99.90;;;;;;4986090;28;19926;-77
2022/09/29 02:45:14;;;;;;;;;;;9.30;99.90;;;;;;4986462;28;20000;-77
2022/09/29 02:47:47;;;;;;;;;;;9.30;99.90;;;;;;4987729;28;19930;-77
2022/09/29 02:50:29;;;;;;;;;;;9.30;99.90;;;;;;4993233;28;20024;-78
2022/09/29 02:53:02;;;;;;;;;;;9.30;99.90;;;;;;4981385;28;20037;-77
2022/09/29 02:55:35;;;;;;;;;;;9.30;99.90;;;;;;4981404;28;19961;-77
2022/09/29 02:58:05;;;;;;;;;;;9.30;99.90;;;;;;4985539;28;19934;-77
2022/09/29 03:00:32;;;;;;;;;;;9.30;99.90;;;;;;4984030;28;19934;-78
2022/09/29 03:02:59;;;;;;;;;;;9.30;99.90;;;;;;4981488;28;19929;-77
2022/09/29 03:05:25;;;;;;;;;;;9.30;99.90;;;;;;4983974;28;19926;-77
2022/09/29 03:07:52;;;;;;;;;;;9.30;99.90;;;;;;4988509;28;19953;-77
2022/09/29 03:10:19;;;;;;;;;;;9.30;99.90;;;;;;4985271;28;20506;-77
2022/09/29 03:12:47;;;;;;;;;;;9.30;99.90;;;;;;4985971;28;20020;-77
2022/09/29 03:15:14;;;;;;;;;;;9.30;99.90;;;;;;4984398;28;21172;-78
2022/09/29 03:17:41;;;;;;;;;;;9.30;99.90;;;;;;4988536;28;19981;-78
2022/09/29 03:20:09;;;;;;;;;;;9.30;99.90;;;;;;4981288;28;20021;-77
2022/09/29 03:22:36;;;;;;;;;;;9.30;99.90;;;;;;4990075;28;19972;-77
2022/09/29 03:25:04;;;;;;;;;;;9.30;99.90;;;;;;4981709;28;19940;-78
2022/09/29 03:27:32;;;;;;;;;;;9.30;99.90;;;;;;4978359;28;19926;-77
2022/09/29 03:30:00;;;;;;;;;;;9.20;99.90;;;;;;4984366;28;19929;-77
2022/09/29 03:32:26;;;;;;;;;;;9.20;99.90;;;;;;4982841;28;19941;-77
2022/09/29 03:34:54;;;;;;;;;;;9.20;99.90;;;;;;4978591;28;20028;-77
2022/09/29 03:37:21;;;;;;;;;;;9.20;99.90;;;;;;4987514;28;19926;-78
2022/09/29 03:39:48;;;;;;;;;;;9.20;99.90;;;;;;4979327;28;20602;-78
2022/09/29 03:42:15;;;;;;;;;;;9.20;99.90;;;;;;4988673;28;19925;-77
2022/09/29 03:44:41;;;;;;;;;;;9.20;99.90;;;;;;5000155;28;19933;-77
2022/09/29 03:47:09;;;;;;;;;;;9.20;99.90;;;;;;4979983;28;20468;-78
2022/09/29 03:49:36;;;;;;;;;;;9.20;99.90;;;;;;4987920;28;19940;-76
2022/09/29 03:52:03;;;;;;;;;;;9.30;99.90;;;;;;4979659;28;19969;-79
2022/09/29 03:54:30;;;;;;;;;;;9.20;99.90;;;;;;4985656;28;19969;-77
2022/09/29 03:56:56;;;;;;;;;;;9.20;99.90;;;;;;4984305;28;19940;-76
2022/09/29 03:59:23;;;;;;;;;;;9.20;99.90;;;;;;4986860;28;20036;-77
2022/09/29 04:01:50;;;;;;;;;;;9.20;99.90;;;;;;4981506;28;20004;-76
2022/09/29 04:04:18;;;;;;;;;;;9.20;99.90;;;;;;4993292;28;20067;-77
2022/09/29 04:06:45;;;;;;;;;;;9.10;99.90;;;;;;4979903;28;19926;-77
2022/09/29 04:09:12;;;;;;;;;;;9.10;99.90;;;;;;4974165;28;20372;-77
2022/09/29 04:11:38;;;;;;;;;;;9.10;99.90;;;;;;4982665;28;20126;-77
2022/09/29 04:14:06;;;;;;;;;;;9.10;99.90;;;;;;4980990;28;19989;-77
2022/09/29 04:16:32;;;;;;;;;;;9.10;99.90;;;;;;4980648;28;19926;-78
2022/09/29 04:18:59;;;;;;;;;;;9.10;99.90;;;;;;4978906;28;20024;-77
2022/09/29 04:21:27;;;;;;;;;;;9.10;99.90;;;;;;4980084;28;20002;-77
2022/09/29 04:23:54;;;;;;;;;;;9.10;99.90;;;;;;4982625;28;20044;-77
2022/09/29 04:26:21;;;;;;;;;;;9.10;99.90;;;;;;4984996;28;20282;-76
2022/09/29 04:28:48;;;;;;;;;;;9.10;99.90;;;;;;4980826;28;20379;-77
2022/09/29 04:31:15;;;;;;;;;;;9.10;99.90;;;;;;4979701;28;19968;-78
2022/09/29 04:33:41;;;;;;;;;;;9.10;99.90;;;;;;4980116;28;19976;-78
2022/09/29 04:36:11;;;;;;;;;;;9.10;99.90;;;;;;4985833;28;19926;-77
2022/09/29 04:38:39;;;;;;;;;;;9.10;99.90;;;;;;4985978;28;19997;-77
2022/09/29 04:41:06;;;;;;;;;;;9.20;99.90;;;;;;4983175;28;20050;-76
2022/09/29 04:43:33;;;;;;;;;;;9.10;99.90;;;;;;4982730;28;20308;-77
2022/09/29 04:46:04;;;;;;;;;;;9.10;99.90;;;;;;4983783;28;19926;-78
2022/09/29 04:48:31;;;;;;;;;;;9.10;99.90;;;;;;4982184;28;20009;-77
2022/09/29 04:50:57;;;;;;;;;;;9.10;99.90;;;;;;4984581;28;20399;-75
2022/09/29 04:53:24;;;;;;;;;;;9.10;99.90;;;;;;4984028;28;20381;-76
2022/09/29 04:55:52;;;;;;;;;;;9.10;99.90;;;;;;4997086;28;20037;-80
2022/09/29 04:58:19;;;;;;;;;;;9.10;99.90;;;;;;4984873;28;20032;-77
2022/09/29 05:00:46;;;;;;;;;;;9.10;99.90;;;;;;4975051;28;19957;-76
2022/09/29 05:03:13;;;;;;;;;;;9.10;99.90;;;;;;4980588;28;20335;-77
2022/09/29 05:05:39;;;;;;;;;;;9.10;99.90;;;;;;4986545;28;19930;-77
2022/09/29 05:08:06;;;;;;;;;;;9.10;99.90;;;;;;4980879;28;20340;-76
2022/09/29 05:10:33;;;;;;;;;;;9.10;99.90;;;;;;4983821;28;19944;-77
2022/09/29 11:14:00;;;;;;;;;;;10.30;99.90;;;;;;5546219;23;19933;-79
2022/09/29 11:16:29;;;;;;;;;;;10.30;99.90;;;;;;5006454;28;19933;-79
2022/09/29 11:18:58;;;;;;;;;;;10.30;99.90;;;;;;5010273;28;19925;-80
2022/09/29 11:21:47;;;;;;;;;;;10.30;99.90;;;;;;5008468;28;19926;-79
2022/09/29 11:24:21;;;;;;;;;;;10.40;99.90;;;;;;5019005;28;19929;-80
2022/09/29 11:26:53;;;;;;;;;;;10.40;99.90;;;;;;4997595;28;19926;-79
2022/09/29 11:29:28;;;;;;;;;;;10.40;99.90;;;;;;4995598;28;19926;-79
2022/09/29 11:32:07;;;;;;;;;;;10.40;99.90;;;;;;4991436;28;20475;-77
2022/09/29 11:34:42;;;;;;;;;;;10.40;99.90;;;;;;4993093;28;19933;-78
2022/09/29 11:37:14;;;;;;;;;;;10.50;99.90;;;;;;4996851;28;19957;-80
2022/09/29 11:39:46;;;;;;;;;;;10.50;99.90;;;;;;4997295;28;19936;-77
2022/09/29 11:42:21;;;;;;;;;;;10.50;99.90;;;;;;4996079;28;19925;-77
2022/09/29 11:44:59;;;;;;;;;;;10.60;99.90;;;;;;5001707;28;19932;-77
2022/09/29 11:47:40;;;;;;;;;;;10.60;99.90;;;;;;4996024;28;20029;-77
2022/09/29 11:50:16;;;;;;;;;;;10.60;99.90;;;;;;4996986;28;19926;-78
2022/09/29 11:52:50;;;;;;;;;;;10.60;99.90;;;;;;4994007;28;19948;-80
2022/09/29 11:55:26;;;;;;;;;;;10.60;99.90;;;;;;4997314;28;20436;-80
2022/09/29 11:57:57;;;;;;;;;;;10.60;99.90;;;;;;4995272;28;19973;-77
2022/09/29 12:00:31;;;;;;;;;;;10.60;99.90;;;;;;5010830;28;19933;-79
2022/09/29 12:03:16;;;;;;;;;;;10.70;99.90;;;;;;5000744;28;20384;-79
2022/09/29 12:05:48;;;;;;;;;;;10.70;99.90;;;;;;4994128;28;19930;-79
2022/09/29 12:08:21;;;;;;;;;;;10.80;99.90;;;;;;5001346;28;20335;-79
2022/09/29 12:10:53;;;;;;;;;;;10.80;99.90;;;;;;5001861;28;19926;-79
2022/09/29 12:13:25;;;;;;;;;;;10.80;99.90;;;;;;5003412;28;20277;-78
2022/09/29 12:15:56;;;;;;;;;;;10.90;99.90;;;;;;4997579;28;19930;-77
2022/09/29 12:18:25;;;;;;;;;;;10.80;99.90;;;;;;5002764;28;19936;-80
2022/09/29 12:20:53;;;;;;;;;;;10.80;99.90;;;;;;5012423;28;20020;-79
2022/09/29 12:23:22;;;;;;;;;;;10.90;99.90;;;;;;4991425;28;19980;-80
2022/09/29 12:25:58;;;;;;;;;;;10.90;99.90;;;;;;4993143;28;19948;-79
2022/09/29 12:28:29;;;;;;;;;;;10.90;99.90;;;;;;4988952;28;19926;-79
2022/09/29 12:31:00;;;;;;;;;;;10.90;99.90;;;;;;4999117;28;19926;-79
2022/09/29 12:33:32;;;;;;;;;;;11.00;99.90;;;;;;4997833;28;19940;-79
2022/09/29 12:36:42;;;;;;;;;;;11.00;99.90;;;;;;4994852;28;20017;-79
2022/09/29 12:38:59;;;;;;;;;;;11.00;99.90;;;;;;4993253;28;19926;-80
2022/09/29 12:41:29;;;;;;;;;;;11.10;99.90;;;;;;4999201;28;20304;-79
2022/09/29 12:47:01;;;;;;;;;;;11.10;99.90;;;;;;4993374;28;19926;-79
2022/09/29 12:49:34;;;;;;;;;;;11.20;99.90;;;;;;4992142;28;19926;-77
2022/09/29 12:52:05;;;;;;;;;;;11.10;99.90;;;;;;4998633;28;20312;-79
2022/09/29 12:54:36;;;;;;;;;;;11.20;99.90;;;;;;5015117;28;19926;-77
2022/09/29 12:57:04;;;;;;;;;;;11.20;99.90;;;;;;4996507;28;19929;-79
2022/09/29 12:59:36;;;;;;;;;;;11.20;99.90;;;;;;4998501;28;19925;-79
2022/09/29 13:02:14;;;;;;;;;;;11.30;99.90;;;;;;4995657;28;19929;-78
2022/09/29 13:04:55;;;;;;;;;;;11.20;99.90;;;;;;4995937;28;19930;-78
2022/09/29 13:07:50;;;;;;;;;;;11.30;99.90;;;;;;4992318;28;19926;-78
2022/09/29 13:10:39;;;;;;;;;;;11.30;99.90;;;;;;4994278;28;20460;-78
2022/09/29 13:13:31;;;;;;;;;;;11.30;99.90;;;;;;4992277;28;20312;-78
2022/09/29 13:19:42;;;;;;;;;;;11.30;99.90;;;;;;4988861;28;19929;-78
2022/09/29 13:28:24;;;;;;;;;;;11.40;99.90;;;;;;4973397;28;19984;-80
2022/09/29 13:33:20;;;;;;;;;;;11.50;99.90;;;;;;4982614;28;19949;-76
2022/09/29 13:35:49;;;;;;;;;;;11.50;99.90;;;;;;4978170;28;23603;-77
2022/09/29 13:38:18;;;;;;;;;;;11.50;99.90;;;;;;4998101;28;19926;-77
2022/09/29 13:40:59;;;;;;;;;;;11.50;99.90;;;;;;4982001;28;19981;-77
2022/09/29 13:43:39;;;;;;;;;;;11.60;99.90;;;;;;4986531;28;20286;-76
2022/09/29 13:46:26;;;;;;;;;;;11.60;99.90;;;;;;4986655;28;19933;-77
2022/09/29 13:48:54;;;;;;;;;;;11.60;99.90;;;;;;4975969;28;19981;-78
2022/09/29 13:51:51;;;;;;;;;;;11.60;99.90;;;;;;4985865;28;19934;-77
2022/09/29 13:54:36;;;;;;;;;;;11.60;99.90;;;;;;4984326;28;19933;-77
2022/09/29 13:57:22;;;;;;;;;;;11.60;99.90;;;;;;5005599;28;20664;-77
2022/09/29 14:00:24;;;;;;;;;;;11.70;99.90;;;;;;4981693;28;19926;-78
2022/09/29 14:03:15;;;;;;;;;;;11.70;99.90;;;;;;4985557;28;19960;-78
2022/09/29 14:05:47;;;;;;;;;;;11.70;99.90;;;;;;4968809;28;19930;-77
2022/09/29 14:08:19;;;;;;;;;;;11.70;99.90;;;;;;4986268;28;19929;-76
2022/09/29 14:10:49;;;;;;;;;;;11.70;99.90;;;;;;4983383;28;19976;-76
2022/09/29 14:13:18;;;;;;;;;;;11.70;99.90;;;;;;4985329;28;21061;-76
2022/09/29 14:15:46;;;;;;;;;;;11.80;99.90;;;;;;4992142;28;19965;-77
2022/09/29 14:18:17;;;;;;;;;;;11.70;99.90;;;;;;4985197;28;19966;-77
2022/09/29 14:20:58;;;;;;;;;;;11.80;99.90;;;;;;4987872;28;20308;-77
2022/09/29 14:23:43;;;;;;;;;;;11.80;99.90;;;;;;4991514;28;19932;-77
2022/09/29 14:26:25;;;;;;;;;;;11.80;99.90;;;;;;4982693;28;19926;-76
2022/09/29 14:28:53;;;;;;;;;;;11.80;99.90;;;;;;4986563;28;20397;-78
2022/09/29 14:31:22;;;;;;;;;;;11.80;99.90;;;;;;4981447;28;19933;-77
2022/09/29 14:33:51;;;;;;;;;;;11.80;99.90;;;;;;4986612;28;19932;-76
2022/09/29 14:36:20;;;;;;;;;;;11.80;99.90;;;;;;4988891;28;19926;-77
2022/09/29 14:38:49;;;;;;;;;;;11.80;99.90;;;;;;4983757;28;20427;-78
2022/09/29 14:41:24;;;;;;;;;;;11.80;99.90;;;;;;4987744;28;20498;-78
2022/09/29 14:43:52;;;;;;;;;;;11.80;99.90;;;;;;4987043;28;20017;-77
2022/09/29 14:52:22;;;;;;;;;;;11.90;99.90;;;;;;4986393;28;20407;-77
2022/09/29 14:54:56;;;;;;;;;;;11.90;99.90;;;;;;4978652;28;19926;-78
2022/09/29 14:57:31;;;;;;;;;;;11.90;99.90;;;;;;4982325;28;19926;-77
2022/09/29 15:00:03;;;;;;;;;;;11.90;99.90;;;;;;4991440;28;19963;-77
2022/09/29 15:02:30;;;;;;;;;;;11.90;99.90;;;;;;4987809;28;19925;-77
2022/09/29 15:04:57;;;;;;;;;;;11.90;99.90;;;;;;4984416;28;19932;-77
2022/09/29 15:07:27;;;;;;;;;;;11.90;99.90;;;;;;4984344;28;20029;-78
2022/09/29 15:09:54;;;;;;;;;;;11.90;99.90;;;;;;4987383;28;20296;-77
2022/09/29 15:12:22;;;;;;;;;;;11.90;99.90;;;;;;4982678;28;19965;-77
2022/09/29 15:14:50;;;;;;;;;;;11.90;99.90;;;;;;4982585;28;19957;-77
2022/09/29 15:17:20;;;;;;;;;;;11.90;99.90;;;;;;4987361;28;19932;-77
2022/09/29 15:19:52;;;;;;;;;;;11.90;99.90;;;;;;4990085;28;20396;-77
2022/09/29 15:22:27;;;;;;;;;;;12.00;99.90;;;;;;4986167;28;19925;-76
2022/09/29 15:25:01;;;;;;;;;;;12.00;99.90;;;;;;4982753;28;20475;-77
2022/09/29 15:27:28;;;;;;;;;;;12.00;99.90;;;;;;4988572;28;19933;-76
2022/09/29 15:29:55;;;;;;;;;;;11.90;99.90;;;;;;4980959;28;19945;-77
2022/09/29 15:32:24;;;;;;;;;;;11.90;99.90;;;;;;4979637;28;20003;-77
2022/09/29 15:34:51;;;;;;;;;;;11.90;99.90;;;;;;4972753;28;19934;-78
2022/09/29 15:37:18;;;;;;;;;;;11.90;99.90;;;;;;4974120;28;19934;-77
2022/09/29 15:39:47;;;;;;;;;;;11.90;99.90;;;;;;4978168;28;19934;-77
2022/09/29 15:42:18;;;;;;;;;;;11.90;99.90;;;;;;4974397;28;20356;-77
2022/09/29 15:44:47;;;;;;;;;;;11.90;99.90;;;;;;4971632;28;19956;-77
2022/09/29 15:47:22;;;;;;;;;;;11.90;99.90;;;;;;4974150;28;19945;-77
2022/09/29 15:49:52;;;;;;;;;;;11.90;99.90;;;;;;4974421;28;19953;-77
2022/09/29 15:52:21;;;;;;;;;;;11.90;99.90;;;;;;4975531;28;19933;-77
2022/09/29 15:54:48;;;;;;;;;;;11.80;99.90;;;;;;4988998;28;20024;-77
2022/09/29 15:57:43;;;;;;;;;;;11.80;99.90;;;;;;4975649;28;20430;-75
2022/09/29 16:00:25;;;;;;;;;;;11.90;99.90;;;;;;4989935;28;19926;-75
2022/09/29 16:03:01;;;;;;;;;;;11.90;99.90;;;;;;4965261;28;19941;-75
2022/09/29 16:05:28;;;;;;;;;;;11.90;99.90;;;;;;4982473;28;19926;-75
2022/09/29 16:08:02;;;;;;;;;;;11.90;99.90;;;;;;4980111;28;20388;-77
2022/09/29 16:10:30;;;;;;;;;;;11.90;99.90;;;;;;4980428;28;19926;-75
2022/09/29 16:13:00;;;;;;;;;;;11.90;99.90;;;;;;4972593;28;20055;-75
2022/09/29 16:15:28;;;;;;;;;;;11.90;99.90;;;;;;4993142;28;19941;-75
2022/09/29 16:17:55;;;;;;;;;;;11.90;99.90;;;;;;4977464;28;19934;-76
2022/09/29 16:20:26;;;;;;;;;;;12.00;99.90;;;;;;4978805;28;19934;-75
2022/09/29 16:22:55;;;;;;;;;;;11.90;99.90;;;;;;4974502;28;21403;-76
2022/09/29 16:25:24;;;;;;;;;;;11.90;99.90;;;;;;4975412;28;19930;-76
2022/09/29 16:27:53;;;;;;;;;;;11.90;99.90;;;;;;4979771;28;19945;-77
2022/09/29 16:30:23;;;;;;;;;;;11.90;99.90;;;;;;4978884;28;19929;-77
2022/09/29 16:33:01;;;;;;;;;;;11.90;99.90;;;;;;4979546;28;19926;-76
2022/09/29 16:35:39;;;;;;;;;;;11.90;99.90;;;;;;4966454;28;20033;-76
2022/09/29 16:38:23;;;;;;;;;;;11.90;99.90;;;;;;4964154;28;19934;-75
2022/09/29 16:40:51;;;;;;;;;;;11.90;99.90;;;;;;4969374;28;20011;-75
2022/09/29 16:43:21;;;;;;;;;;;11.90;99.90;;;;;;4974946;28;20356;-75
2022/09/29 16:45:50;;;;;;;;;;;11.90;99.90;;;;;;4975378;28;20028;-75
2022/09/29 16:48:17;;;;;;;;;;;11.90;99.90;;;;;;4968428;28;20300;-76
2022/09/29 16:50:47;;;;;;;;;;;11.90;99.90;;;;;;4972192;28;20060;-76
2022/09/29 16:53:23;;;;;;;;;;;11.90;99.90;;;;;;4973950;28;20038;-76
2022/09/29 16:55:58;;;;;;;;;;;11.90;99.90;;;;;;4974174;28;19934;-77
2022/09/29 16:58:25;;;;;;;;;;;11.90;99.90;;;;;;4974705;28;19932;-74
2022/09/29 17:00:54;;;;;;;;;;;11.90;99.90;;;;;;4969470;28;19981;-75
2022/09/29 17:03:21;;;;;;;;;;;11.90;99.90;;;;;;4978668;28;19926;-76
2022/09/29 17:05:50;;;;;;;;;;;11.90;99.90;;;;;;4968829;28;19955;-76
2022/09/29 17:08:20;;;;;;;;;;;11.90;99.90;;;;;;4975246;28;19960;-77
2022/09/29 17:10:48;;;;;;;;;;;11.90;99.90;;;;;;4978389;28;20036;-78
2022/09/29 17:13:15;;;;;;;;;;;11.90;99.90;;;;;;4986889;28;19929;-78
2022/09/29 19:09:15;;;;;;;;;;;11.60;99.90;;;;;;4981396;28;19946;-79
2022/09/29 23:15:10;;;;;;;;;;;10.70;99.90;;;;;;5515206;23;20427;-78
2022/09/29 23:17:37;;;;;;;;;;;10.60;99.90;;;;;;4977858;28;19933;-78
2022/09/29 23:20:04;;;;;;;;;;;10.70;99.90;;;;;;4982045;28;19936;-77
2022/09/29 23:22:31;;;;;;;;;;;10.70;99.90;;;;;;4973315;28;20404;-78
2022/09/29 23:24:57;;;;;;;;;;;10.70;99.90;;;;;;4974596;28;20308;-78
2022/09/29 23:27:25;;;;;;;;;;;10.70;99.90;;;;;;4980323;28;20028;-78
2022/09/29 23:29:51;;;;;;;;;;;10.60;99.90;;;;;;4998873;28;20165;-78
2022/09/29 23:32:19;;;;;;;;;;;10.60;99.90;;;;;;4978270;28;19926;-77
2022/09/29 23:34:46;;;;;;;;;;;10.60;99.90;;;;;;4980708;28;20388;-78
2022/09/29 23:37:13;;;;;;;;;;;10.60;99.90;;;;;;4983258;28;20008;-78
2022/09/29 23:39:39;;;;;;;;;;;10.60;99.90;;;;;;4981906;28;19960;-78
2022/09/29 23:42:06;;;;;;;;;;;10.60;99.90;;;;;;4977183;28;20004;-78
2022/09/29 23:44:35;;;;;;;;;;;10.60;99.90;;;;;;4976419;28;19926;-78
2022/09/29 23:47:02;;;;;;;;;;;10.60;99.90;;;;;;4979105;28;20012;-78
2022/09/29 23:49:30;;;;;;;;;;;10.60;99.90;;;;;;4977554;28;19926;-78
2022/09/29 23:51:58;;;;;;;;;;;10.60;99.90;;;;;;4980876;28;19932;-78
2022/09/29 23:54:26;;;;;;;;;;;10.60;99.90;;;;;;4973855;28;19930;-78
2022/09/29 23:56:54;;;;;;;;;;;10.60;99.90;;;;;;4974551;28;19937;-78
2022/09/29 23:59:21;;;;;;;;;;;10.60;99.90;;;;;;4972283;28;20009;-78
